Orel 5 — EMFH — position and weather

sailwx.info

Track history (hours):
 
Tides and Currents Weather Stations Pressure Air Temp Water Temp Dewpoint Dewpoint Depression Visibility Wind Speed Wind Dir Waves Ship Positions

Orel 5

Last reported at 2018-Jan-20 05:06 UTC. Time now 2018-Jan-23 06:28 UTC.
Position N 46°32' E 032°08'.

Length 108 m; draft 2.8 m.

Type: Cargo ship. MMSI: 272059000.

Date/timePositionNaut miles runAvg speedWind from/ knotsBaromVisibWave heightAir tempDewpointWater temp
2018-Jan-20 05:06N 46°32' E 032°08'1 7.2
2018-Jan-20 04:59N 46°32' E 032°07'1 1.8
2018-Jan-20 04:27N 46°32' E 032°06'0 0.0
2018-Jan-20 03:15N 46°32' E 032°06'0 0.0
2018-Jan-20 02:57N 46°32' E 032°06'0 0.0
2018-Jan-20 02:15N 46°32' E 032°06'0 0.0
2018-Jan-20 01:45N 46°32' E 032°06'0 0.0
2018-Jan-20 01:27N 46°32' E 032°06'0 0.0
2018-Jan-20 00:56N 46°32' E 032°06'0 0.0
2018-Jan-20 00:26N 46°32' E 032°06'0 0.0
2018-Jan-19 23:56N 46°32' E 032°06'0 0.0
2018-Jan-19 23:26N 46°32' E 032°06'0 0.3
2018-Jan-19 23:00N 46°32' E 032°06'3 5.9
2018-Jan-19 22:30N 46°33' E 032°01'4 7.5
2018-Jan-19 22:00N 46°34' E 031°56'4 7.6
2018-Jan-19 21:30N 46°35' E 031°51'4 7.3
2018-Jan-19 21:00N 46°35' E 031°46'4 7.1
2018-Jan-19 20:30N 46°35' E 031°40'14 7.0
2018-Jan-19 18:27N 46°35' E 031°19'4 8.2
2018-Jan-19 18:00N 46°35' E 031°14'4 8.1
2018-Jan-19 17:30N 46°35' E 031°08'8 7.2
2018-Jan-19 16:26N 46°33' E 030°58'2 4.6
2018-Jan-19 16:00N 46°31' E 030°56'3 6.2
2018-Jan-19 15:30N 46°28' E 030°56'4 7.1
2018-Jan-19 15:00N 46°24' E 030°57'4 7.2
2018-Jan-19 14:30N 46°21' E 030°57'4 8.2
2018-Jan-19 13:57N 46°16' E 030°57'3 7.0
2018-Jan-19 13:28N 46°14' E 030°54'4 8.3
2018-Jan-19 12:58N 46°12' E 030°48'4 8.4
2018-Jan-19 12:30N 46°11' E 030°43'4 8.2
2018-Jan-19 11:59N 46°09' E 030°37'  
Track history (hours):
 
Tides and Currents Weather Stations Pressure Air Temp Water Temp Dewpoint Dewpoint Depression Visibility Wind Speed Wind Dir Waves Ship Positions

Orel 5

Last reported at 2018-Jan-20 05:06 UTC. Time now 2018-Jan-23 06:28 UTC.
Position N 46°32' E 032°08'.

Length 108 m; draft 2.8 m.

Type: Cargo ship. MMSI: 272059000.

Date/timePositionNaut miles runAvg speedWind from/ knotsBaromVisibWave heightAir tempDewpointWater temp
2018-Jan-20 05:06N 46°32' E 032°08'1 7.2
2018-Jan-20 04:59N 46°32' E 032°07'1 1.8
2018-Jan-20 04:27N 46°32' E 032°06'0 0.0
2018-Jan-20 03:15N 46°32' E 032°06'0 0.0
2018-Jan-20 02:57N 46°32' E 032°06'0 0.0
2018-Jan-20 02:15N 46°32' E 032°06'0 0.0
2018-Jan-20 01:45N 46°32' E 032°06'0 0.0
2018-Jan-20 01:27N 46°32' E 032°06'0 0.0
2018-Jan-20 00:56N 46°32' E 032°06'0 0.0
2018-Jan-20 00:26N 46°32' E 032°06'0 0.0
2018-Jan-19 23:56N 46°32' E 032°06'0 0.0
2018-Jan-19 23:26N 46°32' E 032°06'0 0.3
2018-Jan-19 23:00N 46°32' E 032°06'3 5.9
2018-Jan-19 22:30N 46°33' E 032°01'4 7.5
2018-Jan-19 22:00N 46°34' E 031°56'4 7.6
2018-Jan-19 21:30N 46°35' E 031°51'4 7.3
2018-Jan-19 21:00N 46°35' E 031°46'4 7.1
2018-Jan-19 20:30N 46°35' E 031°40'14 7.0
2018-Jan-19 18:27N 46°35' E 031°19'4 8.2
2018-Jan-19 18:00N 46°35' E 031°14'4 8.1
2018-Jan-19 17:30N 46°35' E 031°08'8 7.2
2018-Jan-19 16:26N 46°33' E 030°58'2 4.6
2018-Jan-19 16:00N 46°31' E 030°56'3 6.2
2018-Jan-19 15:30N 46°28' E 030°56'4 7.1
2018-Jan-19 15:00N 46°24' E 030°57'4 7.2
2018-Jan-19 14:30N 46°21' E 030°57'4 8.2
2018-Jan-19 13:57N 46°16' E 030°57'3 7.0
2018-Jan-19 13:28N 46°14' E 030°54'4 8.3
2018-Jan-19 12:58N 46°12' E 030°48'4 8.4
2018-Jan-19 12:30N 46°11' E 030°43'4 8.2
2018-Jan-19 11:59N 46°09' E 030°37'  

Dump ship's entire track history